X  Stänga Metar väderdata för luftfart     LIPX Verona-Villafranca Valerio Catullo Airport
Temperatur
16°C Temperatur
13°C Daggpunkt
83% Fuktighet



Vind
1 M/S
3 MPH
5 KM/T
3 KTS



360°
N
Nuvarande omständigheter

Klar Klar
Tryck 1024.04 (hPa) - 30.24 (inHg)
Synlighet 6 (mil) - 9.7 (km)
Flygplats
Flygplatskod LIPX

Plats: Verona-Villafranca Valerio Catullo Airport
Distans: 0 (km)

Metar:
LIPX 132250Z 36003KT CAVOK 16/13 Q1024

Tid: 13-04-2024 22:50 CEST